Time,TemperatureF,DewpointF,PressureIn,WindDirection,WindDirectionDegrees,WindSpeedMPH,WindSpeedGustMPH,Humidity,HourlyPrecipIn,Conditions,Clouds,dailyrainin,SoftwareType,DateUTC
2013-04-18 00:01:00,19.2,15.2,29.94,NE,45,0.0,4.9,84,0.00,,---,0.00,VWS V14.01,2013-04-18 06:01:00,
2013-04-18 00:06:00,19.2,15.2,29.94,NE,45,0.0,4.9,84,0.00,,---,0.00,VWS V14.01,2013-04-18 06:06:00,
2013-04-18 00:11:00,19.2,15.2,29.94,NE,45,0.0,0.0,84,0.00,,---,0.00,VWS V14.01,2013-04-18 06:11:00,
2013-04-18 00:16:00,19.2,15.2,29.94,NE,45,0.0,0.0,84,0.00,,---,0.00,VWS V14.01,2013-04-18 06:16:00,
2013-04-18 00:21:00,19.0,15.0,29.95,NE,45,0.0,0.0,84,0.00,,---,0.00,VWS V14.01,2013-04-18 06:21:00,
2013-04-18 00:26:00,18.8,14.8,29.94,NE,45,0.0,0.0,84,0.00,,---,0.00,VWS V14.01,2013-04-18 06:26:00,
2013-04-18 00:31:00,18.8,14.8,29.94,NE,45,0.0,0.0,84,0.00,,---,0.00,VWS V14.01,2013-04-18 06:31:00,
2013-04-18 00:36:00,18.6,14.6,29.94,NE,45,0.0,0.0,84,0.00,,---,0.00,VWS V14.01,2013-04-18 06:36:00,
2013-04-18 00:41:00,18.5,14.5,29.94,NE,45,0.0,0.0,84,0.00,,---,0.00,VWS V14.01,2013-04-18 06:41:00,
2013-04-18 00:46:00,18.3,14.3,29.94,NE,45,0.0,0.0,84,0.00,,---,0.00,VWS V14.01,2013-04-18 06:46:00,
2013-04-18 00:51:00,18.3,14.3,29.95,NE,45,0.0,0.0,84,0.00,,---,0.00,VWS V14.01,2013-04-18 06:51:00,
2013-04-18 00:56:00,18.1,14.1,29.94,NE,45,0.0,0.0,84,0.00,,---,0.00,VWS V14.01,2013-04-18 06:56:00,
2013-04-18 01:01:00,18.1,14.1,29.94,NE,45,0.0,0.0,84,0.00,,---,0.00,VWS V14.01,2013-04-18 07:01:00,
2013-04-18 01:06:00,18.1,14.1,29.94,NE,45,0.0,0.0,84,0.00,,---,0.00,VWS V14.01,2013-04-18 07:06:00,
2013-04-18 01:11:00,17.9,13.9,29.95,NE,45,0.0,0.0,84,0.00,,---,0.00,VWS V14.01,2013-04-18 07:11:00,
2013-04-18 01:16:00,17.9,13.9,29.94,NE,45,0.0,0.0,84,0.00,,---,0.00,VWS V14.01,2013-04-18 07:16:00,
2013-04-18 01:21:00,17.9,13.9,29.94,NE,45,0.0,0.0,84,0.00,,---,0.00,VWS V14.01,2013-04-18 07:21:00,
2013-04-18 01:26:00,17.7,13.7,29.94,NE,45,0.0,0.0,84,0.00,,---,0.00,VWS V14.01,2013-04-18 07:26:00,
2013-04-18 01:31:00,17.7,13.7,29.93,NE,45,0.0,0.0,84,0.00,,---,0.00,VWS V14.01,2013-04-18 07:31:00,
2013-04-18 01:36:00,17.7,13.7,29.94,NE,45,0.0,0.0,84,0.00,,---,0.00,VWS V14.01,2013-04-18 07:36:00,
2013-04-18 01:41:00,17.7,13.7,29.94,NE,45,0.0,0.0,84,0.00,,---,0.00,VWS V14.01,2013-04-18 07:41:00,
2013-04-18 01:47:00,17.7,13.7,29.94,NE,45,0.0,0.0,84,0.00,,---,0.00,VWS V14.01,2013-04-18 07:47:00,
2013-04-18 01:52:00,17.7,13.7,29.94,NE,45,0.0,0.0,84,0.00,,---,0.00,VWS V14.01,2013-04-18 07:52:00,
2013-04-18 01:57:00,17.7,13.7,29.93,NE,45,0.0,0.0,84,0.00,,---,0.00,VWS V14.01,2013-04-18 07:57:00,
2013-04-18 02:02:00,17.7,13.7,29.93,NE,45,0.0,0.0,84,0.00,,---,0.00,VWS V14.01,2013-04-18 08:02:00,
2013-04-18 02:06:00,17.7,13.7,29.93,NE,45,0.0,0.0,84,0.00,,---,0.00,VWS V14.01,2013-04-18 08:06:00,
2013-04-18 02:12:00,17.7,13.7,29.93,NE,45,0.0,0.0,84,0.00,,---,0.00,VWS V14.01,2013-04-18 08:12:00,
2013-04-18 02:17:00,17.7,13.4,29.93,NE,45,0.0,0.0,83,0.00,,---,0.00,VWS V14.01,2013-04-18 08:17:00,
2013-04-18 02:21:00,17.7,13.4,29.93,NE,45,0.0,0.0,83,0.00,,---,0.00,VWS V14.01,2013-04-18 08:21:00,
2013-04-18 02:26:00,17.7,13.4,29.93,NE,45,0.0,0.0,83,0.00,,---,0.00,VWS V14.01,2013-04-18 08:26:00,
2013-04-18 02:32:00,17.4,13.1,29.93,NE,45,0.0,0.0,83,0.00,,---,0.00,VWS V14.01,2013-04-18 08:32:00,
2013-04-18 02:37:00,17.4,13.1,29.93,NE,45,0.0,0.0,83,0.00,,---,0.00,VWS V14.01,2013-04-18 08:37:00,
2013-04-18 02:42:00,17.4,13.1,29.93,NE,45,0.0,0.0,83,0.00,,---,0.00,VWS V14.01,2013-04-18 08:42:00,
2013-04-18 02:46:00,17.2,12.9,29.93,NE,45,0.0,0.0,83,0.00,,---,0.00,VWS V14.01,2013-04-18 08:46:00,
2013-04-18 02:52:00,17.2,12.9,29.93,NE,45,0.0,0.0,83,0.00,,---,0.00,VWS V14.01,2013-04-18 08:52:00,
2013-04-18 02:57:00,16.8,12.5,29.93,NE,45,0.0,0.0,83,0.00,,---,0.00,VWS V14.01,2013-04-18 08:57:00,
2013-04-18 03:02:00,16.8,12.3,29.93,NE,45,0.0,0.0,82,0.00,,---,0.00,VWS V14.01,2013-04-18 09:02:00,
2013-04-18 03:07:00,16.8,12.3,29.93,NE,45,0.0,0.0,82,0.00,,---,0.00,VWS V14.01,2013-04-18 09:07:00,
2013-04-18 03:12:00,16.7,12.2,29.93,NE,45,3.3,3.3,82,0.00,,---,0.00,VWS V14.01,2013-04-18 09:12:00,
2013-04-18 03:17:00,16.7,12.2,29.93,NE,45,0.0,3.3,82,0.00,,---,0.00,VWS V14.01,2013-04-18 09:17:00,
2013-04-18 03:22:00,16.7,12.2,29.93,NE,45,0.0,0.0,82,0.00,,---,0.00,VWS V14.01,2013-04-18 09:22:00,
2013-04-18 03:27:00,16.5,12.0,29.92,NE,45,0.0,0.0,82,0.00,,---,0.00,VWS V14.01,2013-04-18 09:27:00,
2013-04-18 03:31:00,16.5,12.0,29.92,NE,45,0.0,0.0,82,0.00,,---,0.00,VWS V14.01,2013-04-18 09:31:00,
2013-04-18 03:36:00,16.3,11.8,29.93,NE,45,0.0,0.0,82,0.00,,---,0.00,VWS V14.01,2013-04-18 09:36:00,
2013-04-18 03:41:00,16.3,11.8,29.93,NE,45,0.0,0.0,82,0.00,,---,0.00,VWS V14.01,2013-04-18 09:41:00,
2013-04-18 03:46:00,16.3,11.8,29.93,NE,45,0.0,0.0,82,0.00,,---,0.00,VWS V14.01,2013-04-18 09:46:00,
2013-04-18 03:51:00,16.1,11.6,29.93,NE,45,0.0,0.0,82,0.00,,---,0.00,VWS V14.01,2013-04-18 09:51:00,
2013-04-18 03:56:00,15.9,11.4,29.92,NE,45,0.0,0.0,82,0.00,,---,0.00,VWS V14.01,2013-04-18 09:56:00,
2013-04-18 04:01:00,15.8,11.0,29.92,NE,45,2.0,2.0,81,0.00,,---,0.00,VWS V14.01,2013-04-18 10:01:00,
2013-04-18 04:06:00,15.6,10.8,29.92,NE,45,0.0,2.0,81,0.00,,---,0.00,VWS V14.01,2013-04-18 10:06:00,
2013-04-18 04:11:00,15.6,10.8,29.92,NE,45,0.0,0.0,81,0.00,,---,0.00,VWS V14.01,2013-04-18 10:11:00,
2013-04-18 04:16:00,15.4,10.6,29.92,NE,45,0.0,0.0,81,0.00,,---,0.00,VWS V14.01,2013-04-18 10:16:00,
2013-04-18 04:21:00,15.0,10.2,29.93,NE,45,0.0,0.0,81,0.00,,---,0.00,VWS V14.01,2013-04-18 10:21:00,
2013-04-18 04:26:00,14.9,10.1,29.93,NE,45,0.0,0.0,81,0.00,,---,0.00,VWS V14.01,2013-04-18 10:26:00,
2013-04-18 04:31:00,14.7,9.9,29.93,NE,45,0.0,0.0,81,0.00,,---,0.00,VWS V14.01,2013-04-18 10:31:00,
2013-04-18 04:36:00,14.7,10.2,29.92,NE,45,0.0,0.0,82,0.00,,---,0.00,VWS V14.01,2013-04-18 10:36:00,
2013-04-18 04:41:00,14.7,10.2,29.92,NE,45,0.0,0.0,82,0.00,,---,0.00,VWS V14.01,2013-04-18 10:41:00,
2013-04-18 04:47:00,14.5,10.0,29.92,NE,45,0.0,0.0,82,0.00,,---,0.00,VWS V14.01,2013-04-18 10:47:00,
2013-04-18 04:52:00,14.5,10.0,29.92,NE,45,0.0,0.0,82,0.00,,---,0.00,VWS V14.01,2013-04-18 10:52:00,
2013-04-18 04:56:00,14.5,10.0,29.92,NE,45,0.0,0.0,82,0.00,,---,0.00,VWS V14.01,2013-04-18 10:56:00,
2013-04-18 05:01:00,14.5,10.0,29.92,NE,45,0.0,0.0,82,0.00,,---,0.00,VWS V14.01,2013-04-18 11:01:00,
2013-04-18 05:07:00,14.5,10.0,29.93,NE,45,0.0,0.0,82,0.00,,---,0.00,VWS V14.01,2013-04-18 11:07:00,
2013-04-18 05:12:00,14.5,10.0,29.92,NE,45,0.0,0.0,82,0.00,,---,0.00,VWS V14.01,2013-04-18 11:12:00,
2013-04-18 05:17:00,14.5,10.0,29.92,NE,45,0.0,0.0,82,0.00,,---,0.00,VWS V14.01,2013-04-18 11:17:00,
2013-04-18 05:22:00,14.5,10.3,29.92,NE,45,0.0,0.0,83,0.00,,---,0.00,VWS V14.01,2013-04-18 11:22:00,
2013-04-18 05:27:00,14.3,10.1,29.92,NE,45,0.0,0.0,83,0.00,,---,0.00,VWS V14.01,2013-04-18 11:27:00,
2013-04-18 05:32:00,14.1,9.9,29.93,NE,45,0.0,0.0,83,0.00,,---,0.00,VWS V14.01,2013-04-18 11:32:00,
2013-04-18 05:37:00,14.1,9.9,29.92,NE,45,0.0,0.0,83,0.00,,---,0.00,VWS V14.01,2013-04-18 11:37:00,
2013-04-18 05:42:00,13.8,9.6,29.93,NE,45,0.0,0.0,83,0.00,,---,0.00,VWS V14.01,2013-04-18 11:42:00,
2013-04-18 05:47:00,13.6,9.4,29.93,NE,45,0.0,0.0,83,0.00,,---,0.00,VWS V14.01,2013-04-18 11:47:00,
2013-04-18 05:52:00,13.6,9.4,29.92,NE,45,0.0,0.0,83,0.00,,---,0.00,VWS V14.01,2013-04-18 11:52:00,
2013-04-18 05:57:00,13.6,9.4,29.92,NE,45,0.0,0.0,83,0.00,,---,0.00,VWS V14.01,2013-04-18 11:57:00,
2013-04-18 06:02:00,13.6,9.4,29.93,NE,45,0.0,0.0,83,0.00,,---,0.00,VWS V14.01,2013-04-18 12:02:00,
2013-04-18 06:07:00,13.4,9.2,29.93,NE,45,0.0,0.0,83,0.00,,---,0.00,VWS V14.01,2013-04-18 12:07:00,
2013-04-18 06:12:00,13.2,9.0,29.93,NE,45,0.0,0.0,83,0.00,,---,0.00,VWS V14.01,2013-04-18 12:12:00,
2013-04-18 06:17:00,13.2,9.3,29.93,NE,45,0.0,0.0,84,0.00,,---,0.00,VWS V14.01,2013-04-18 12:17:00,
2013-04-18 06:22:00,13.6,9.7,29.93,NE,45,0.0,0.0,84,0.00,,---,0.00,VWS V14.01,2013-04-18 12:22:00,
2013-04-18 06:27:00,13.6,9.7,29.93,NE,45,0.0,0.0,84,0.00,,---,0.00,VWS V14.01,2013-04-18 12:27:00,
2013-04-18 06:32:00,13.6,9.7,29.93,NE,45,0.0,0.0,84,0.00,,---,0.00,VWS V14.01,2013-04-18 12:32:00,
2013-04-18 06:37:00,13.6,9.7,29.93,NE,45,0.0,0.0,84,0.00,,---,0.00,VWS V14.01,2013-04-18 12:37:00,
2013-04-18 06:42:00,13.8,9.9,29.93,NE,45,0.0,0.0,84,0.00,,---,0.00,VWS V14.01,2013-04-18 12:42:00,
2013-04-18 06:47:00,13.8,9.9,29.93,NE,45,0.0,0.0,84,0.00,,---,0.00,VWS V14.01,2013-04-18 12:47:00,
2013-04-18 06:52:00,14.1,10.2,29.93,NE,45,0.0,0.0,84,0.00,,---,0.00,VWS V14.01,2013-04-18 12:52:00,
2013-04-18 06:56:00,14.7,10.8,29.93,NE,45,0.0,0.0,84,0.00,,---,0.00,VWS V14.01,2013-04-18 12:56:00,
2013-04-18 07:01:00,14.9,10.9,29.93,NE,45,0.0,0.0,84,0.00,,---,0.00,VWS V14.01,2013-04-18 13:01:00,
2013-04-18 07:07:00,15.2,11.2,29.93,NE,45,0.0,0.0,84,0.00,,---,0.00,VWS V14.01,2013-04-18 13:07:00,
2013-04-18 07:12:00,15.9,11.9,29.93,NE,45,0.0,0.0,84,0.00,,---,0.00,VWS V14.01,2013-04-18 13:12:00,
2013-04-18 07:17:00,16.3,12.3,29.93,NE,45,0.0,0.0,84,0.00,,---,0.00,VWS V14.01,2013-04-18 13:17:00,
2013-04-18 07:22:00,16.7,12.7,29.93,NE,45,0.0,0.0,84,0.00,,---,0.00,VWS V14.01,2013-04-18 13:22:00,
2013-04-18 07:27:00,17.4,12.9,29.93,NE,45,0.0,0.0,82,0.00,,---,0.00,VWS V14.01,2013-04-18 13:27:00,
2013-04-18 07:32:00,17.7,13.1,29.93,NE,45,0.0,0.0,82,0.00,,---,0.00,VWS V14.01,2013-04-18 13:32:00,
2013-04-18 07:37:00,17.9,13.1,29.93,NE,45,0.0,0.0,81,0.00,,---,0.00,VWS V14.01,2013-04-18 13:37:00,
2013-04-18 07:42:00,18.3,13.2,29.93,NE,45,0.0,0.0,80,0.00,,---,0.00,VWS V14.01,2013-04-18 13:42:00,
2013-04-18 07:47:00,18.5,13.4,29.93,NE,45,0.0,0.0,80,0.00,,---,0.00,VWS V14.01,2013-04-18 13:47:00,
2013-04-18 07:52:00,18.8,13.7,29.93,NE,45,0.0,0.0,80,0.00,,---,0.00,VWS V14.01,2013-04-18 13:52:00,
2013-04-18 07:57:00,19.2,13.8,29.93,NE,45,0.0,0.0,79,0.00,,---,0.00,VWS V14.01,2013-04-18 13:57:00,
2013-04-18 08:02:00,19.2,13.8,29.93,NE,45,0.0,0.0,79,0.00,,---,0.00,VWS V14.01,2013-04-18 14:02:00,
2013-04-18 08:07:00,19.5,13.8,29.93,NE,45,0.0,0.0,78,0.00,,---,0.00,VWS V14.01,2013-04-18 14:07:00,
2013-04-18 08:12:00,20.3,14.3,29.93,NE,45,0.0,0.0,77,0.00,,---,0.00,VWS V14.01,2013-04-18 14:12:00,
2013-04-18 08:17:00,20.8,14.4,29.94,NE,45,0.0,0.0,76,0.00,,---,0.00,VWS V14.01,2013-04-18 14:17:00,
2013-04-18 08:22:00,21.0,14.6,29.93,NE,45,0.0,0.0,76,0.00,,---,0.00,VWS V14.01,2013-04-18 14:22:00,
2013-04-18 08:27:00,21.9,15.2,29.94,NE,45,0.0,0.0,75,0.00,,---,0.00,VWS V14.01,2013-04-18 14:27:00,
2013-04-18 08:32:00,22.2,15.2,29.93,NE,45,0.0,0.0,74,0.00,,---,0.00,VWS V14.01,2013-04-18 14:32:00,
2013-04-18 08:37:00,22.8,15.5,29.93,NE,45,0.0,0.0,73,0.00,,---,0.00,VWS V14.01,2013-04-18 14:37:00,
2013-04-18 08:42:00,23.7,15.7,29.93,NE,45,0.0,0.0,71,0.00,,---,0.00,VWS V14.01,2013-04-18 14:42:00,
2013-04-18 08:47:00,24.0,15.6,29.93,NE,45,0.0,0.0,70,0.00,,---,0.00,VWS V14.01,2013-04-18 14:47:00,
2013-04-18 08:52:00,24.4,15.7,29.93,NE,45,0.0,0.0,69,0.00,,---,0.00,VWS V14.01,2013-04-18 14:52:00,
2013-04-18 08:57:00,24.6,15.6,29.93,NE,45,0.0,0.0,68,0.00,,---,0.00,VWS V14.01,2013-04-18 14:57:00,
2013-04-18 09:02:00,25.1,15.7,29.93,NE,45,0.0,0.0,67,0.00,,---,0.00,VWS V14.01,2013-04-18 15:02:00,
2013-04-18 09:07:00,25.5,15.7,29.93,NE,45,0.0,0.0,66,0.00,,---,0.00,VWS V14.01,2013-04-18 15:07:00,
2013-04-18 09:12:00,26.2,16.1,29.93,NE,45,0.0,0.0,65,0.00,,---,0.00,VWS V14.01,2013-04-18 15:12:00,
2013-04-18 09:17:00,26.4,15.5,29.93,NE,45,0.0,0.0,63,0.00,,---,0.00,VWS V14.01,2013-04-18 15:17:00,
2013-04-18 09:22:00,26.7,15.8,29.93,NE,45,0.0,0.0,63,0.00,,---,0.00,VWS V14.01,2013-04-18 15:22:00,
2013-04-18 09:27:00,27.1,15.8,29.93,NE,45,0.0,2.4,62,0.00,,---,0.00,VWS V14.01,2013-04-18 15:27:00,
2013-04-18 09:32:00,27.3,15.6,29.93,NE,45,0.0,0.0,61,0.00,,---,0.00,VWS V14.01,2013-04-18 15:32:00,
2013-04-18 09:37:00,27.6,15.9,29.93,NE,45,0.0,0.0,61,0.00,,---,0.00,VWS V14.01,2013-04-18 15:37:00,
2013-04-18 09:42:00,27.5,15.4,29.93,NE,45,0.0,0.0,60,0.00,,---,0.00,VWS V14.01,2013-04-18 15:42:00,
2013-04-18 09:47:00,27.6,15.6,29.93,NE,45,0.0,0.0,60,0.00,,---,0.00,VWS V14.01,2013-04-18 15:47:00,
2013-04-18 09:52:00,28.2,16.1,29.93,NE,45,0.0,0.0,60,0.00,,---,0.00,VWS V14.01,2013-04-18 15:52:00,
2013-04-18 09:57:00,28.0,15.5,29.93,NE,45,0.0,0.0,59,0.00,,---,0.00,VWS V14.01,2013-04-18 15:57:00,
2013-04-18 10:02:00,28.0,15.1,29.93,NE,45,0.0,0.0,58,0.00,,---,0.00,VWS V14.01,2013-04-18 16:02:00,
2013-04-18 10:07:00,28.0,15.1,29.93,NE,45,3.5,3.5,58,0.00,,---,0.00,VWS V14.01,2013-04-18 16:07:00,
2013-04-18 10:12:00,28.0,15.5,29.93,NE,45,5.8,5.8,59,0.00,,---,0.00,VWS V14.01,2013-04-18 16:12:00,
2013-04-18 10:17:00,28.2,15.3,29.93,NE,45,4.2,5.8,58,0.00,,---,0.00,VWS V14.01,2013-04-18 16:17:00,
2013-04-18 10:22:00,28.2,15.7,29.93,NE,45,0.0,0.0,59,0.00,,---,0.00,VWS V14.01,2013-04-18 16:22:00,
2013-04-18 10:27:00,28.7,15.8,29.93,NE,45,0.0,4.4,58,0.00,,---,0.00,VWS V14.01,2013-04-18 16:27:00,
2013-04-18 10:32:00,28.7,15.4,29.93,NE,45,6.4,6.4,57,0.00,,---,0.00,VWS V14.01,2013-04-18 16:32:00,
2013-04-18 10:37:00,28.9,15.6,29.93,NE,45,0.0,6.4,57,0.00,,---,0.00,VWS V14.01,2013-04-18 16:37:00,
2013-04-18 10:42:00,29.1,15.8,29.93,NE,45,7.3,7.3,57,0.00,,---,0.00,VWS V14.01,2013-04-18 16:42:00,
2013-04-18 10:47:00,29.4,16.1,29.93,NE,45,0.0,7.3,57,0.00,,---,0.00,VWS V14.01,2013-04-18 16:47:00,
2013-04-18 10:52:00,29.6,15.8,29.93,NE,45,0.0,0.0,56,0.00,,---,0.00,VWS V14.01,2013-04-18 16:52:00,
2013-04-18 10:57:00,29.8,16.0,29.93,NE,45,0.0,0.0,56,0.00,,---,0.00,VWS V14.01,2013-04-18 16:57:00,
2013-04-18 11:02:00,30.0,16.2,29.93,NE,45,0.0,0.0,56,0.00,,---,0.00,VWS V14.01,2013-04-18 17:02:00,
2013-04-18 11:07:00,30.3,15.7,29.93,NE,45,0.0,0.0,54,0.00,,---,0.00,VWS V14.01,2013-04-18 17:07:00,
2013-04-18 11:12:00,30.5,15.9,29.93,NE,45,0.0,0.0,54,0.00,,---,0.00,VWS V14.01,2013-04-18 17:12:00,
2013-04-18 11:17:00,30.9,16.6,29.93,NE,45,0.0,2.6,55,0.00,,---,0.00,VWS V14.01,2013-04-18 17:17:00,
2013-04-18 11:22:00,31.2,17.3,29.93,NE,45,0.0,0.0,56,0.00,,---,0.00,VWS V14.01,2013-04-18 17:22:00,
2013-04-18 11:27:00,31.6,17.3,29.93,NE,45,0.0,0.0,55,0.00,,---,0.00,VWS V14.01,2013-04-18 17:27:00,
2013-04-18 11:32:00,32.1,17.3,29.93,NE,45,3.1,3.1,54,0.00,,---,0.00,VWS V14.01,2013-04-18 17:32:00,
2013-04-18 11:37:00,32.1,16.5,29.93,NE,45,0.0,3.1,52,0.00,,---,0.00,VWS V14.01,2013-04-18 17:37:00,
2013-04-18 11:42:00,32.1,16.5,29.93,NE,45,0.0,5.3,52,0.00,,---,0.00,VWS V14.01,2013-04-18 17:42:00,
2013-04-18 11:47:00,32.1,16.5,29.93,NE,45,0.0,5.3,52,0.00,,---,0.00,VWS V14.01,2013-04-18 17:47:00,
2013-04-18 11:52:00,32.7,17.0,29.92,NE,45,0.0,0.0,52,0.00,,---,0.00,VWS V14.01,2013-04-18 17:52:00,
2013-04-18 11:57:00,33.0,17.3,29.92,NE,45,0.0,0.0,52,0.00,,---,0.00,VWS V14.01,2013-04-18 17:57:00,
2013-04-18 12:02:00,33.2,16.1,29.92,NE,45,0.0,0.0,49,0.00,,---,0.00,VWS V14.01,2013-04-18 18:02:00,
2013-04-18 12:07:00,33.2,15.6,29.92,NE,45,0.0,3.1,48,0.00,,---,0.00,VWS V14.01,2013-04-18 18:07:00,
2013-04-18 12:12:00,33.0,15.5,29.92,NE,45,0.0,0.0,48,0.00,,---,0.00,VWS V14.01,2013-04-18 18:12:00,
2013-04-18 12:17:00,33.6,17.0,29.92,NE,45,0.0,0.0,50,0.00,,---,0.00,VWS V14.01,2013-04-18 18:17:00,
2013-04-18 12:22:00,33.9,16.3,29.92,NE,45,0.0,0.0,48,0.00,,---,0.00,VWS V14.01,2013-04-18 18:22:00,
2013-04-18 12:27:00,34.7,16.5,29.92,NE,45,0.0,1.1,47,0.00,,---,0.00,VWS V14.01,2013-04-18 18:27:00,
2013-04-18 12:32:00,35.0,16.8,29.92,NE,45,1.5,1.5,47,0.00,,---,0.00,VWS V14.01,2013-04-18 18:32:00,
2013-04-18 12:37:00,35.7,17.0,29.92,NE,45,0.0,4.4,46,0.00,,---,0.00,VWS V14.01,2013-04-18 18:37:00,
2013-04-18 12:42:00,36.3,18.0,29.92,NE,45,0.0,0.0,47,0.00,,---,0.00,VWS V14.01,2013-04-18 18:42:00,
2013-04-18 12:47:00,36.5,17.7,29.92,NE,45,0.0,0.0,46,0.00,,---,0.00,VWS V14.01,2013-04-18 18:47:00,
2013-04-18 12:52:00,36.5,17.2,29.92,NNE,22,0.0,3.8,45,0.00,,---,0.00,VWS V14.01,2013-04-18 18:52:00,
2013-04-18 12:57:00,36.5,17.2,29.92,NNE,22,3.1,10.9,45,0.00,,---,0.00,VWS V14.01,2013-04-18 18:57:00,
2013-04-18 13:02:00,36.8,18.0,29.92,NNE,22,2.6,2.6,46,0.00,,---,0.00,VWS V14.01,2013-04-18 19:02:00,
2013-04-18 13:07:00,37.9,19.5,29.92,NNE,22,10.0,10.0,47,0.00,,---,0.00,VWS V14.01,2013-04-18 19:07:00,
2013-04-18 13:12:00,38.4,18.9,29.92,NNE,22,7.1,7.1,45,0.00,,---,0.00,VWS V14.01,2013-04-18 19:12:00,
2013-04-18 13:17:00,38.4,17.9,29.91,NNE,22,0.0,7.3,43,0.00,,---,0.00,VWS V14.01,2013-04-18 19:17:00,
2013-04-18 13:22:00,38.4,18.9,29.92,NNE,22,7.8,7.8,45,0.00,,---,0.00,VWS V14.01,2013-04-18 19:22:00,
2013-04-18 13:27:00,38.8,20.3,29.92,NNE,22,2.9,7.8,47,0.00,,---,0.00,VWS V14.01,2013-04-18 19:27:00,
2013-04-18 13:32:00,39.2,20.7,29.92,NNE,22,0.0,10.9,47,0.00,,---,0.00,VWS V14.01,2013-04-18 19:32:00,
2013-04-18 13:37:00,39.9,20.8,29.92,North,0,3.3,10.9,46,0.00,,---,0.00,VWS V14.01,2013-04-18 19:37:00,
2013-04-18 13:42:00,40.8,22.1,29.92,NE,45,6.4,6.4,47,0.00,,---,0.00,VWS V14.01,2013-04-18 19:42:00,
2013-04-18 13:47:00,41.9,22.6,29.92,NNE,22,2.6,6.4,46,0.00,,---,0.00,VWS V14.01,2013-04-18 19:47:00,
2013-04-18 13:52:00,42.0,22.2,29.92,ENE,68,0.2,7.3,45,0.00,,---,0.00,VWS V14.01,2013-04-18 19:52:00,
2013-04-18 13:57:00,41.9,21.0,29.93,North,0,0.0,7.3,43,0.00,,---,0.00,VWS V14.01,2013-04-18 19:57:00,
2013-04-18 14:02:00,40.6,19.9,29.92,NNE,22,0.0,9.1,43,0.00,,---,0.00,VWS V14.01,2013-04-18 20:02:00,
2013-04-18 14:07:00,40.8,20.6,29.92,NE,45,6.0,9.1,44,0.00,,---,0.00,VWS V14.01,2013-04-18 20:07:00,
2013-04-18 14:12:00,41.3,22.1,29.92,NE,45,0.0,0.0,46,0.00,,---,0.00,VWS V14.01,2013-04-18 20:12:00,
2013-04-18 14:17:00,41.9,22.6,29.92,NNE,22,4.4,7.6,46,0.00,,---,0.00,VWS V14.01,2013-04-18 20:17:00,
2013-04-18 14:22:00,41.9,21.6,29.92,NNE,22,4.2,6.4,44,0.00,,---,0.00,VWS V14.01,2013-04-18 20:22:00,
2013-04-18 14:27:00,41.7,21.4,29.92,NNE,22,0.0,6.4,44,0.00,,---,0.00,VWS V14.01,2013-04-18 20:27:00,
2013-04-18 14:32:00,41.7,21.9,29.92,NE,45,0.0,2.9,45,0.00,,---,0.00,VWS V14.01,2013-04-18 20:32:00,
2013-04-18 14:37:00,41.5,21.2,29.92,NNE,22,4.0,4.0,44,0.00,,---,0.00,VWS V14.01,2013-04-18 20:37:00,
2013-04-18 14:42:00,41.7,21.9,29.92,NNE,22,0.0,2.6,45,0.00,,---,0.00,VWS V14.01,2013-04-18 20:42:00,
2013-04-18 14:47:00,42.0,22.2,29.92,NE,45,4.9,5.1,45,0.00,,---,0.00,VWS V14.01,2013-04-18 20:47:00,
2013-04-18 14:52:00,42.0,21.7,29.92,ENE,68,6.2,6.2,44,0.00,,---,0.00,VWS V14.01,2013-04-18 20:52:00,
2013-04-18 14:57:00,42.0,22.2,29.92,East,90,6.0,6.2,45,0.00,,---,0.00,VWS V14.01,2013-04-18 20:57:00,
2013-04-18 15:02:00,42.6,22.8,29.92,NNE,22,4.6,4.6,45,0.00,,---,0.00,VWS V14.01,2013-04-18 21:02:00,
2013-04-18 15:07:00,42.6,22.2,29.91,ENE,68,0.0,4.6,44,0.00,,---,0.00,VWS V14.01,2013-04-18 21:07:00,
2013-04-18 15:12:00,42.9,22.0,29.92,NNE,22,2.9,2.9,43,0.00,,---,0.00,VWS V14.01,2013-04-18 21:12:00,
2013-04-18 15:17:00,43.3,22.3,29.92,NE,45,0.0,4.6,43,0.00,,---,0.00,VWS V14.01,2013-04-18 21:17:00,
2013-04-18 15:22:00,43.7,21.6,29.92,NE,45,4.0,4.0,41,0.00,,---,0.00,VWS V14.01,2013-04-18 21:22:00,
2013-04-18 15:27:00,43.8,21.6,29.92,NNE,22,6.2,6.2,41,0.00,,---,0.00,VWS V14.01,2013-04-18 21:27:00,
2013-04-18 15:32:00,44.2,22.0,29.92,NNE,22,8.5,8.5,41,0.00,,---,0.00,VWS V14.01,2013-04-18 21:32:00,
2013-04-18 15:37:00,44.9,22.6,29.92,NE,45,4.9,8.5,41,0.00,,---,0.00,VWS V14.01,2013-04-18 21:37:00,
2013-04-18 15:42:00,44.9,21.5,29.92,NNE,22,2.4,4.0,39,0.00,,---,0.00,VWS V14.01,2013-04-18 21:42:00,
2013-04-18 15:47:00,45.1,22.2,29.92,NNE,22,0.0,4.0,40,0.00,,---,0.00,VWS V14.01,2013-04-18 21:47:00,
2013-04-18 15:52:00,45.1,21.6,29.92,NE,45,4.6,4.6,39,0.00,,---,0.00,VWS V14.01,2013-04-18 21:52:00,
2013-04-18 15:57:00,44.9,21.5,29.92,NE,45,0.4,4.6,39,0.00,,---,0.00,VWS V14.01,2013-04-18 21:57:00,
2013-04-18 16:02:00,45.5,22.6,29.92,ENE,68,0.0,3.8,40,0.00,,---,0.00,VWS V14.01,2013-04-18 22:02:00,
2013-04-18 16:07:00,46.2,22.6,29.92,NNE,22,3.3,3.8,39,0.00,,---,0.00,VWS V14.01,2013-04-18 22:07:00,
2013-04-18 16:12:00,46.9,22.6,29.92,NNE,22,0.0,6.2,38,0.00,,---,0.00,VWS V14.01,2013-04-18 22:12:00,
2013-04-18 16:17:00,48.0,23.0,29.92,NE,45,8.0,8.0,37,0.00,,---,0.00,VWS V14.01,2013-04-18 22:17:00,
2013-04-18 16:22:00,48.5,22.8,29.92,NE,45,3.3,7.8,36,0.00,,---,0.00,VWS V14.01,2013-04-18 22:22:00,
2013-04-18 16:27:00,49.1,22.6,29.92,NE,45,3.8,7.8,35,0.00,,---,0.00,VWS V14.01,2013-04-18 22:27:00,
2013-04-18 16:32:00,51.0,23.6,29.92,NE,45,3.3,3.3,34,0.00,,---,0.00,VWS V14.01,2013-04-18 22:32:00,
2013-04-18 16:37:00,52.7,24.4,29.92,NE,45,0.0,3.3,33,0.00,,---,0.00,VWS V14.01,2013-04-18 22:37:00,
2013-04-18 16:42:00,54.3,24.3,29.92,NNE,22,5.8,5.8,31,0.00,,---,0.00,VWS V14.01,2013-04-18 22:42:00,
2013-04-18 16:47:00,56.4,23.7,29.92,North,0,5.8,5.8,28,0.00,,---,0.00,VWS V14.01,2013-04-18 22:47:00,
2013-04-18 16:52:00,57.3,23.6,29.93,NE,45,6.7,6.7,27,0.00,,---,0.00,VWS V14.01,2013-04-18 22:52:00,
2013-04-18 16:57:00,57.0,24.2,29.93,NE,45,0.0,6.7,28,0.00,,---,0.00,VWS V14.01,2013-04-18 22:57:00,
2013-04-18 17:02:00,58.1,23.4,29.92,NNE,22,5.5,5.5,26,0.00,,---,0.00,VWS V14.01,2013-04-18 23:02:00,
2013-04-18 17:07:00,57.0,22.5,29.92,ENE,68,0.0,5.5,26,0.00,,---,0.00,VWS V14.01,2013-04-18 23:07:00,
2013-04-18 17:12:00,57.9,23.2,29.93,NE,45,3.1,5.3,26,0.00,,---,0.00,VWS V14.01,2013-04-18 23:12:00,
2013-04-18 17:17:00,62.6,26.3,29.93,ENE,68,6.2,6.2,25,0.00,,---,0.00,VWS V14.01,2013-04-18 23:17:00,
2013-04-18 17:22:00,63.1,25.8,29.93,NE,45,0.0,0.0,24,0.00,,---,0.00,VWS V14.01,2013-04-18 23:22:00,
2013-04-18 17:27:00,61.1,25.0,29.93,ESE,112,0.0,3.8,25,0.00,,---,0.00,VWS V14.01,2013-04-18 23:27:00,
2013-04-18 17:32:00,60.0,25.0,29.94,ENE,68,4.0,7.1,26,0.00,,---,0.00,VWS V14.01,2013-04-18 23:32:00,
2013-04-18 17:37:00,61.8,25.6,29.94,East,90,5.5,7.1,25,0.00,,---,0.00,VWS V14.01,2013-04-18 23:37:00,
2013-04-18 17:42:00,64.5,25.9,29.94,NNE,22,2.9,5.3,23,0.00,,---,0.00,VWS V14.01,2013-04-18 23:42:00,
2013-04-18 17:47:00,69.4,27.8,29.94,NE,45,0.0,5.3,21,0.00,,---,0.00,VWS V14.01,2013-04-18 23:47:00,
2013-04-18 17:52:00,71.9,27.4,29.94,East,90,0.0,0.0,19,0.00,,---,0.00,VWS V14.01,2013-04-18 23:52:00,
2013-04-18 17:57:00,73.9,29.1,29.94,ENE,68,0.0,3.5,19,0.00,,---,0.00,VWS V14.01,2013-04-18 23:57:00,
2013-04-18 18:02:00,76.6,28.6,29.94,East,90,0.0,0.0,17,0.00,,---,0.00,VWS V14.01,2013-04-19 00:02:00,
2013-04-18 18:07:00,77.1,27.5,29.94,NNE,22,5.1,5.1,16,0.00,,---,0.00,VWS V14.01,2013-04-19 00:07:00,
2013-04-18 18:12:00,76.6,27.1,29.94,NE,45,0.0,6.0,16,0.00,,---,0.00,VWS V14.01,2013-04-19 00:12:00,
2013-04-18 18:17:00,77.1,25.9,29.94,NNE,22,2.9,6.0,15,0.00,,---,0.00,VWS V14.01,2013-04-19 00:17:00,
2013-04-18 18:22:00,76.8,24.0,29.94,NNE,22,0.0,4.2,14,0.00,,---,0.00,VWS V14.01,2013-04-19 00:22:00,
2013-04-18 18:27:00,75.5,24.7,29.94,NNE,22,3.8,7.8,15,0.00,,---,0.00,VWS V14.01,2013-04-19 00:27:00,
2013-04-18 18:32:00,73.5,23.1,29.95,NNE,22,0.0,5.1,15,0.00,,---,0.00,VWS V14.01,2013-04-19 00:32:00,
2013-04-18 18:37:00,73.2,24.4,29.95,NE,45,0.0,5.1,16,0.00,,---,0.00,VWS V14.01,2013-04-19 00:37:00,
2013-04-18 18:42:00,73.2,22.8,29.95,NNE,22,3.1,6.0,15,0.00,,---,0.00,VWS V14.01,2013-04-19 00:42:00,
2013-04-18 18:47:00,72.3,23.6,29.95,NE,45,0.0,6.0,16,0.00,,---,0.00,VWS V14.01,2013-04-19 00:47:00,
2013-04-18 18:52:00,72.8,24.0,29.95,NE,45,2.6,2.6,16,0.00,,---,0.00,VWS V14.01,2013-04-19 00:52:00,
2013-04-18 18:57:00,73.0,22.7,29.95,NE,45,1.1,2.6,15,0.00,,---,0.00,VWS V14.01,2013-04-19 00:57:00,
2013-04-18 19:02:00,72.5,23.8,29.95,NE,45,0.0,0.0,16,0.00,,---,0.00,VWS V14.01,2013-04-19 01:02:00,
2013-04-18 19:07:00,70.8,20.9,29.95,NNE,22,0.0,0.2,15,0.00,,---,0.00,VWS V14.01,2013-04-19 01:07:00,
2013-04-18 19:12:00,56.8,16.2,29.95,NNE,22,0.0,0.0,20,0.00,,---,0.00,VWS V14.01,2013-04-19 01:12:00,
2013-04-18 19:17:00,47.1,13.1,29.95,NNE,22,0.0,2.4,25,0.00,,---,0.00,VWS V14.01,2013-04-19 01:17:00,
2013-04-18 19:22:00,46.2,12.3,29.96,NNE,22,0.0,0.0,25,0.00,,---,0.00,VWS V14.01,2013-04-19 01:22:00,
2013-04-18 19:27:00,44.9,12.1,29.96,NNE,22,0.0,0.0,26,0.00,,---,0.00,VWS V14.01,2013-04-19 01:27:00,
2013-04-18 19:32:00,43.3,12.4,29.96,NNE,22,0.0,0.0,28,0.00,,---,0.00,VWS V14.01,2013-04-19 01:32:00,
2013-04-18 19:37:00,42.4,11.6,29.96,NNE,22,0.0,0.0,28,0.00,,---,0.00,VWS V14.01,2013-04-19 01:37:00,
2013-04-18 19:42:00,41.3,11.5,29.96,NNE,22,0.0,0.0,29,0.00,,---,0.00,VWS V14.01,2013-04-19 01:42:00,
2013-04-18 19:47:00,39.7,10.8,29.96,NNE,22,0.0,0.0,30,0.00,,---,0.00,VWS V14.01,2013-04-19 01:47:00,
2013-04-18 19:52:00,39.0,11.7,29.96,NNE,22,0.0,0.0,32,0.00,,---,0.00,VWS V14.01,2013-04-19 01:52:00,
2013-04-18 19:57:00,38.4,11.8,29.96,NNE,22,0.0,0.0,33,0.00,,---,0.00,VWS V14.01,2013-04-19 01:57:00,
2013-04-18 20:02:00,37.7,11.9,29.96,NNE,22,0.0,0.0,34,0.00,,---,0.00,VWS V14.01,2013-04-19 02:02:00,
2013-04-18 20:07:00,37.2,12.1,29.96,NNE,22,0.0,0.0,35,0.00,,---,0.00,VWS V14.01,2013-04-19 02:07:00,
2013-04-18 20:12:00,36.8,12.4,29.97,NNE,22,0.0,0.0,36,0.00,,---,0.00,VWS V14.01,2013-04-19 02:12:00,
2013-04-18 20:17:00,36.3,12.5,29.96,NNE,22,0.0,0.0,37,0.00,,---,0.00,VWS V14.01,2013-04-19 02:17:00,
2013-04-18 20:22:00,35.9,12.2,29.96,NNE,22,0.0,0.0,37,0.00,,---,0.00,VWS V14.01,2013-04-19 02:22:00,
2013-04-18 20:27:00,35.4,12.9,29.96,NNE,22,0.0,0.0,39,0.00,,---,0.00,VWS V14.01,2013-04-19 02:27:00,
2013-04-18 20:32:00,34.8,12.9,29.96,NNE,22,0.0,0.0,40,0.00,,---,0.00,VWS V14.01,2013-04-19 02:32:00,
2013-04-18 20:37:00,34.5,12.7,29.97,NNE,22,0.0,0.0,40,0.00,,---,0.00,VWS V14.01,2013-04-19 02:37:00,
2013-04-18 20:42:00,34.3,13.1,29.97,NNE,22,0.0,0.0,41,0.00,,---,0.00,VWS V14.01,2013-04-19 02:42:00,
2013-04-18 20:47:00,34.1,12.9,29.98,NNE,22,0.0,0.0,41,0.00,,---,0.00,VWS V14.01,2013-04-19 02:47:00,
2013-04-18 20:52:00,33.8,13.1,29.98,NNE,22,0.0,0.0,42,0.00,,---,0.00,VWS V14.01,2013-04-19 02:52:00,
2013-04-18 20:57:00,33.6,13.0,29.98,NNE,22,0.0,0.0,42,0.00,,---,0.00,VWS V14.01,2013-04-19 02:57:00,
2013-04-18 21:02:00,33.2,12.6,29.98,NNE,22,0.0,0.0,42,0.00,,---,0.00,VWS V14.01,2013-04-19 03:02:00,
2013-04-18 21:07:00,32.9,11.8,29.98,NNE,22,0.0,0.0,41,0.00,,---,0.00,VWS V14.01,2013-04-19 03:07:00,
2013-04-18 21:12:00,32.7,10.5,29.98,NNE,22,0.0,0.0,39,0.00,,---,0.00,VWS V14.01,2013-04-19 03:12:00,
2013-04-18 21:17:00,32.5,9.7,29.98,NNE,22,0.0,0.0,38,0.00,,---,0.00,VWS V14.01,2013-04-19 03:17:00,
2013-04-18 21:22:00,32.3,9.6,29.98,NNE,22,0.0,0.0,38,0.00,,---,0.00,VWS V14.01,2013-04-19 03:22:00,
2013-04-18 21:27:00,32.3,9.6,29.98,NNE,22,0.0,0.0,38,0.00,,---,0.00,VWS V14.01,2013-04-19 03:27:00,
2013-04-18 21:32:00,32.1,8.8,29.98,NNE,22,0.0,0.0,37,0.00,,---,0.00,VWS V14.01,2013-04-19 03:32:00,
2013-04-18 21:37:00,32.1,8.8,29.98,NNE,22,0.0,0.0,37,0.00,,---,0.00,VWS V14.01,2013-04-19 03:37:00,
2013-04-18 21:42:00,32.1,8.8,29.98,NNE,22,0.0,0.0,37,0.00,,---,0.00,VWS V14.01,2013-04-19 03:42:00,
2013-04-18 21:47:00,31.8,9.1,29.98,NNE,22,0.0,0.0,38,0.00,,---,0.00,VWS V14.01,2013-04-19 03:47:00,
2013-04-18 21:52:00,31.8,9.1,29.99,NNE,22,0.0,0.0,38,0.00,,---,0.00,VWS V14.01,2013-04-19 03:52:00,
2013-04-18 21:57:00,31.6,9.5,29.99,NNE,22,0.0,0.0,39,0.00,,---,0.00,VWS V14.01,2013-04-19 03:57:00,
2013-04-18 22:01:00,31.6,9.5,29.99,NNE,22,0.0,0.0,39,0.00,,---,0.00,VWS V14.01,2013-04-19 04:01:00,
2013-04-18 22:06:00,31.6,9.5,29.99,NNE,22,0.0,0.0,39,0.00,,---,0.00,VWS V14.01,2013-04-19 04:06:00,
2013-04-18 22:11:00,31.2,9.1,29.99,NNE,22,0.0,0.0,39,0.00,,---,0.00,VWS V14.01,2013-04-19 04:11:00,
2013-04-18 22:16:00,31.2,9.1,29.99,NNE,22,0.0,0.0,39,0.00,,---,0.00,VWS V14.01,2013-04-19 04:16:00,
2013-04-18 22:21:00,31.1,9.1,29.99,NNE,22,0.0,0.0,39,0.00,,---,0.00,VWS V14.01,2013-04-19 04:21:00,
2013-04-18 22:26:00,31.1,9.1,29.98,NNE,22,0.0,0.0,39,0.00,,---,0.00,VWS V14.01,2013-04-19 04:26:00,
2013-04-18 22:31:00,30.9,8.9,29.99,NNE,22,0.0,0.0,39,0.00,,---,0.00,VWS V14.01,2013-04-19 04:31:00,
2013-04-18 22:36:00,30.9,8.9,29.98,NNE,22,0.0,0.0,39,0.00,,---,0.00,VWS V14.01,2013-04-19 04:36:00,
2013-04-18 22:41:00,30.9,9.4,29.98,NNE,22,0.0,0.0,40,0.00,,---,0.00,VWS V14.01,2013-04-19 04:41:00,
2013-04-18 22:46:00,30.7,9.2,29.98,NNE,22,0.0,0.0,40,0.00,,---,0.00,VWS V14.01,2013-04-19 04:46:00,
2013-04-18 22:51:00,30.7,9.8,29.99,NNE,22,0.0,0.0,41,0.00,,---,0.00,VWS V14.01,2013-04-19 04:51:00,
2013-04-18 22:56:00,30.5,9.6,29.99,NNE,22,0.0,0.0,41,0.00,,---,0.00,VWS V14.01,2013-04-19 04:56:00,
2013-04-18 23:01:00,30.5,9.6,29.98,NNE,22,0.0,0.0,41,0.00,,---,0.00,VWS V14.01,2013-04-19 05:01:00,
2013-04-18 23:06:00,30.3,9.4,29.98,NNE,22,0.0,0.0,41,0.00,,---,0.00,VWS V14.01,2013-04-19 05:06:00,
2013-04-18 23:11:00,30.3,9.4,29.98,NNE,22,0.0,0.0,41,0.00,,---,0.00,VWS V14.01,2013-04-19 05:11:00,
2013-04-18 23:16:00,30.3,10.0,29.97,NNE,22,0.0,0.0,42,0.00,,---,0.00,VWS V14.01,2013-04-19 05:16:00,
2013-04-18 23:21:00,30.0,9.2,29.97,NNE,22,0.0,0.0,41,0.00,,---,0.00,VWS V14.01,2013-04-19 05:21:00,
2013-04-18 23:26:00,30.0,9.2,29.98,NNE,22,0.0,0.0,41,0.00,,---,0.00,VWS V14.01,2013-04-19 05:26:00,
2013-04-18 23:31:00,30.0,9.2,29.97,NNE,22,0.0,0.0,41,0.00,,---,0.00,VWS V14.01,2013-04-19 05:31:00,
2013-04-18 23:36:00,29.8,9.0,29.98,NNE,22,0.0,0.0,41,0.00,,---,0.00,VWS V14.01,2013-04-19 05:36:00,
2013-04-18 23:41:00,29.4,8.6,29.98,NNE,22,0.0,0.0,41,0.00,,---,0.00,VWS V14.01,2013-04-19 05:41:00,
2013-04-18 23:46:00,29.4,9.2,29.97,NNE,22,0.0,0.0,42,0.00,,---,0.00,VWS V14.01,2013-04-19 05:46:00,
2013-04-18 23:51:00,29.3,9.6,29.97,NNE,22,0.0,0.0,43,0.00,,---,0.00,VWS V14.01,2013-04-19 05:51:00,
2013-04-18 23:56:00,29.1,9.9,29.97,NNE,22,0.0,0.0,44,0.00,,---,0.00,VWS V14.01,2013-04-19 05:56:00,